Flight Track Log - Related Links

Times and Time Zones

All times are in EDT time to prevent confusion due to time zone crossing. See the TCF3494 flight status page for this flight to view local times or setup timezone preferences in your user account.

Time Position Orientation Groundspeed Altitude Reporting Facility
EDT Latitude Longitude Course Direction KTS MPH feet Rate Location/Type
Sat 09:29:09 PM 41.9833 -87.8500 90° East 164 189 2,500  Level Chicago TRACON
Sat 09:29:59 PM 41.9822 -87.7986 92° East 202 232 4,100 2,270 Climbing Chicago Center
Sat 09:31:00 PM 41.9428 -87.2646 95° East  Level FlightAware
Sat 09:31:00 PM 41.9767 -87.6975 94° East 256 295 6,700  Level Chicago Center
Sat 09:32:00 PM 41.9333 -87.1059 90° East  Level FlightAware
Sat 09:32:01 PM 41.9717 -87.5844 93° East 295 339 10,500  Level Chicago Center
Sat 09:33:00 PM 41.9333 -86.9466 90° East  Level FlightAware
Sat 09:33:02 PM 41.9664 -87.4667 93° East 314 361 13,400  Level Chicago Center
Sat 09:34:00 PM 41.9333 -86.7873 90° East  Level FlightAware
Sat 09:34:03 PM 41.9594 -87.3331 94° East 365 420 15,900  Level Chicago Center
Sat 09:35:04 PM 41.9511 -87.1900 94° East 384 442 18,300 2,459 Climbing Chicago Center
Sat 09:36:05 PM 41.9450 -87.0389 93° East 406 467 20,900 2,311 Climbing Chicago Center
Sat 09:37:06 PM 41.9481 -86.8792 88° East 429 494 23,000 2,311 Climbing Chicago Center
Sat 09:38:07 PM 41.9506 -86.6839 89° East 442 509 25,600 2,164 Climbing Chicago Center
Sat 09:39:08 PM 41.9517 -86.5106 89° East 459 528 27,400 1,672 Climbing Chicago Center
Sat 09:40:09 PM 41.9547 -86.3358 89° East 466 536 29,000 1,525 Climbing Chicago Center
Sat 09:41:10 PM 41.9517 -86.1572 91° East 475 547 30,500 1,377 Climbing Chicago Center
Sat 09:42:11 PM 41.9336 -85.9778 98° East 482 555 31,800 1,475 Climbing Chicago Center
Sat 09:43:12 PM 41.9164 -85.7989 97° East 484 557 33,500 1,587 Climbing Chicago Center
Sat 09:44:12 PM 41.9003 -85.6225 97° East 476 548 35,000 744 Climbing Chicago Center
Sat 09:45:13 PM 41.8836 -85.4400 97° East 486 559 35,000  Level Chicago Center
Sat 09:47:15 PM 41.8458 -85.0658 98° East 501 577 35,000  Level Chicago Center
Sat 09:48:16 PM 41.8269 -84.8803 98° East 504 580 35,000  Level Chicago Center
Sat 09:49:17 PM 41.8072 -84.6967 98° East 501 577 35,000  Level Chicago Center
Sat 09:50:18 PM 41.7886 -84.5158 98° East 491 565 35,000  Level Chicago Center
Sat 09:51:19 PM 41.7772 -84.3333 95° East 492 566 35,000  Level Chicago Center
Sat 09:52:20 PM 41.7769 -84.1489 90° East 496 571 35,000  Level Chicago Center
Sat 09:53:32 PM 41.7722 -83.9050 91° East 491 565 35,000  Level Cleveland Center
Sat 09:54:32 PM 41.7711 -83.7183 90° East 497 572 35,000  Level Cleveland Center
Sat 09:55:31 PM 41.7656 -83.5342 92° East 497 572 35,000  Level Cleveland Center
Sat 09:56:32 PM 41.7494 -83.3497 97° East 497 572 35,000  Level Cleveland Center
Sat 09:57:32 PM 41.7344 -83.1822 97° East 502 578 35,000  Level Cleveland Center
Sat 09:58:32 PM 41.7136 -83.0006 99° East 502 578 35,000  Level Cleveland Center
Sat 09:59:32 PM 41.6942 -82.8161 98° East 502 578 35,000  Level Cleveland Center
Sat 10:00:32 PM 41.6792 -82.6239 96° East 507 583 35,000  Level Cleveland Center
Sat 10:01:32 PM 41.6572 -82.4397 99° East 507 583 35,000  Level Cleveland Center
Sat 10:02:31 PM 41.6375 -82.2392 97° East 501 577 35,000  Level Cleveland Center
Sat 10:03:31 PM 41.6169 -82.0553 98° East 506 582 35,000  Level Cleveland Center
Sat 10:04:32 PM 41.5983 -81.8686 98° East 506 582 35,000  Level Cleveland Center
Sat 10:05:31 PM 41.5772 -81.6850 99° East 506 582 35,000  Level Cleveland Center
Sat 10:06:32 PM 41.5561 -81.5044 99° East 506 582 35,000  Level Cleveland Center
Sat 10:07:32 PM 41.5383 -81.3433 98° East 506 582 35,000  Level Cleveland Center
Sat 10:08:32 PM 41.5167 -81.1656 99° East 489 563 35,000  Level Cleveland Center
Sat 10:09:32 PM 41.5006 -80.9825 97° East 483 556 35,000  Level Cleveland Center
Sat 10:10:32 PM 41.4844 -80.8047 97° East 483 556 35,000  Level Cleveland Center
Sat 10:11:32 PM 41.4681 -80.6303 97° East 483 556 35,000  Level Cleveland Center
Sat 10:12:32 PM 41.4492 -80.4336 97° East 483 556 35,000  Level Cleveland Center
Sat 10:13:32 PM 41.4383 -80.2731 95° East 483 556 35,000  Level Cleveland Center
Sat 10:14:32 PM 41.4211 -80.0931 97° East 483 556 35,000  Level Cleveland Center
Sat 10:15:31 PM 41.3992 -79.8967 98° East 478 550 35,000  Level Cleveland Center
Sat 10:16:32 PM 41.3814 -79.7197 98° East 483 556 35,000  Level Cleveland Center
Sat 10:17:31 PM 41.3675 -79.5594 97° East 483 556 35,000 -1,008 Level Cleveland Center
Sat 10:18:31 PM 41.3492 -79.3772 98° East 483 556 33,000  Descending Cleveland Center
Sat 10:19:31 PM 41.3281 -79.1783 98° East 483 556 35,000 1,000 Climbing Cleveland Center
Sat 10:20:31 PM 41.3092 -79.0019 98° East 483 556 35,000  Level Cleveland Center
Sat 10:21:31 PM 41.2944 -78.8419 97° East 483 556 35,000  Level Cleveland Center
Sat 10:23:07 PM 41.2622 -78.5497 98° East 473 544 35,000  Level New Center
Sat 10:24:07 PM 41.2439 -78.3847 98° East 481 554 35,000 -712 Level New Center
Sat 10:25:05 PM 41.2239 -78.2086 99° East 486 559 33,600 -1,008 Descending New Center
Sat 10:26:06 PM 41.1994 -78.0292 100° East 486 559 33,000 -295 Descending New Center
Sat 10:27:07 PM 41.1769 -77.8503 99° East 486 559 33,000  Level New Center
Sat 10:28:05 PM 41.1539 -77.6742 100° East 486 559 33,000  Level New Center
Sat 10:29:05 PM 41.1289 -77.4953 100° East 486 559 33,000  Level New Center
Sat 10:30:06 PM 41.0936 -77.3072 104° East 486 559 33,000 -600 Level New Center
Sat 10:31:05 PM 41.0614 -77.1336 104° East 486 559 31,800 -1,700 Descending New Center
Sat 10:32:06 PM 41.0267 -76.9597 105° East 486 559 29,600 -2,132 Descending New Center
Sat 10:33:06 PM 40.9942 -76.7808 103° East 486 559 27,500 -2,118 Descending New Center
Sat 10:34:05 PM 40.9628 -76.6214 105° East 474 545 25,400 -2,033 Descending New Center
Sat 10:35:07 PM 40.9311 -76.4539 104° East 468 539 23,400 -1,967 Descending New Center
Sat 10:36:07 PM 40.8972 -76.2917 105° East 468 539 21,400 -1,934 Descending New Center
Sat 10:37:08 PM 40.8689 -76.1358 103° East 458 527 19,500 -1,932 Descending New Center
Sat 10:38:05 PM 40.8403 -75.9853 104° East 435 501 17,600 -1,866 Descending New Center
Sat 10:39:07 PM 40.8111 -75.8406 105° East 418 481 15,800 -1,721 Descending New Center
Sat 10:40:07 PM 40.7872 -75.7153 104° East 405 466 14,100 -1,412 Descending New Center
Sat 10:41:06 PM 40.7556 -75.5761 107° East 400 460 13,000 -555 Descending New Center
Sat 10:42:06 PM 40.7253 -75.4453 107° East 385 443 13,000  Level New Center
Sat 10:43:05 PM 40.6953 -75.3064 106° East 385 443 13,000 -298 Level New Center
Sat 10:44:07 PM 40.6711 -75.1733 103° East 385 443 12,400 -1,240 Descending New Center
Sat 10:45:06 PM 40.6006 -75.0569 129° Southeast 370 426 10,500 -1,190 Descending New Center
Sat 10:46:08 PM 40.5483 -74.9444 121° Southeast 364 419 10,000 -333 Descending New Center
Sat 10:46:36 PM 40.5333 -74.8667 104° East 372 428 10,000  Level New TRACON
Sat 10:47:36 PM 40.5000 -74.7500 111° Southeast 329 379 10,000 -500 Level New TRACON
Sat 10:48:36 PM 40.4667 -74.6500 114° Southeast 317 365 9,000 -500 Descending New TRACON
Sat 10:49:36 PM 40.4333 -74.5500 114° Southeast 317 365 9,000 -143 Level New TRACON
Sat 10:50:42 PM 40.4667 -74.4167 72° East 317 365 8,700 -476 Descending New TRACON
Sat 10:51:42 PM 40.4833 -74.3167 78° East 308 354 8,000 -368 Descending New TRACON
Sat 10:52:36 PM 40.5167 -74.2167 66° East 311 358 8,000 -737 Level New TRACON
Sat 10:53:36 PM 40.5500 -74.1167 66° East 306 352 6,600 -1,053 Descending New TRACON
Sat 10:54:30 PM 40.5833 -74.0333 62° Northeast 295 339 6,000 -842 Descending New TRACON
Sat 10:55:30 PM 40.6500 -73.9833 30° Northeast 279 321 5,000 -476 Descending New TRACON
Sat 10:56:36 PM 40.7000 -73.9000 52° Northeast 241 277 5,000 -476 Level New TRACON
Sat 10:57:36 PM 40.7333 -73.8333 57° Northeast 240 276 4,000 -526 Descending New TRACON
Sat 10:58:30 PM 40.7667 -73.7833 49° Northeast 228 262 4,000 -450 Level New TRACON
Sat 10:59:36 PM 40.8167 -73.7500 27° Northeast 199 229 3,100 -500 Descending New TRACON
Sat 11:00:30 PM 40.8667 -73.7167 27° Northeast 200 230 3,000 -316 Descending New TRACON
Sat 11:01:30 PM 40.9000 -73.7333 339° North 191 220 2,500 -476 Descending New TRACON
Sat 11:02:36 PM 40.8833 -73.7833 246° West 180 207 2,000 -455 Descending New TRACON

Login

Don't have an account? Register now (free) for customized features, flight alerts, and more!